^^
Meteo Knjazevac Station Historical Data
Daily Summary for September 1, 2021 Units:  Both    English   Metric
Daily Weekly Monthly Yearly Custom
  High: Low: Average:
Temperature: 37.8 °F /  3.2 °C 32.5 °F /  0.3 °C 35.4 °F /  1.9 °C
Dew Point: 31.5 °F /  -0.3 °C 27.1 °F /  -2.7 °C 29.2 °F /  -1.6 °C
Humidity: 80% 77% 78%
Wind Speed: 13mph /  20.9km/h - 5.4mph /  8.7km/h
Wind Gust: 19mph /  30.6km/h - -
Wind- - SW
Pressure: 29.96 in /  1014.4 hPa 29.95 in /  1014.1 hPa -
Precipitation: 0.00 in /  0 mm    
Historical Graphs
 
 
Tabular Data for September 1, 2021
Time Temperature Dew Point Pressure Wind Wind Speed Wind Gust Humidity Rainfall Rate (Hourly) solar Conditions
00:00 32.7 °F /  0.4 °C 27.2 °F /  -2.7 °C 29.96in /  1014.4hPa South 3mph /  4.8km/h 7mph /  11.3km/h 80% 0.00in /  0mm 0 W/m2
00:10 32.5 °F /  0.3 °C 27.1 °F /  -2.7 °C 29.96in /  1014.4hPa SE 2mph /  3.2km/h 4mph /  6.4km/h 80% 0.00in /  0mm 0 W/m2
00:20 32.7 °F /  0.4 °C 27.2 °F /  -2.7 °C 29.96in /  1014.4hPa WSW 2mph /  3.2km/h 4mph /  6.4km/h 80% 0.00in /  0mm 0 W/m2
00:30 32.9 °F /  0.5 °C 27.1 °F /  -2.7 °C 29.95in /  1014.1hPa SSW 1mph /  1.6km/h 10mph /  16.1km/h 79% 0.00in /  0mm 0 W/m2
00:40 32.9 °F /  0.5 °C 27.1 °F /  -2.7 °C 29.95in /  1014.1hPa SSW 3mph /  4.8km/h 10mph /  16.1km/h 79% 0.00in /  0mm 0 W/m2
00:50 33.1 °F /  0.6 °C 27.3 °F /  -2.6 °C 29.95in /  1014.1hPa SSW 3mph /  4.8km/h 10mph /  16.1km/h 79% 0.00in /  0mm 0 W/m2
01:00 33.1 °F /  0.6 °C 27.3 °F /  -2.6 °C 29.95in /  1014.1hPa ESE 1mph /  1.6km/h 8mph /  12.9km/h 79% 0.00in /  0mm 0 W/m2
01:10 32.9 °F /  0.5 °C 27.1 °F /  -2.7 °C 29.95in /  1014.1hPa West 2mph /  3.2km/h 10mph /  16.1km/h 79% 0.00in /  0mm 0 W/m2
01:20 33.3 °F /  0.7 °C 27.5 °F /  -2.5 °C 29.95in /  1014.1hPa WSW 6mph /  9.7km/h 11mph /  17.7km/h 79% 0.00in /  0mm 0 W/m2
01:30 33.7 °F /  0.9 °C 27.6 °F /  -2.4 °C 29.95in /  1014.1hPa WSW 8mph /  12.9km/h 12mph /  19.3km/h 78% 0.00in /  0mm 0 W/m2
01:40 34.2 °F /  1.2 °C 27.7 °F /  -2.4 °C 29.96in /  1014.4hPa SW 10mph /  16.1km/h 19mph /  30.6km/h 77% 0.00in /  0mm 0 W/m2
01:50 34.5 °F /  1.4 °C 28.1 °F /  -2.2 °C 29.96in /  1014.4hPa SW 9mph /  14.5km/h 16mph /  25.7km/h 77% 0.00in /  0mm 0 W/m2
02:00 34.5 °F /  1.4 °C 28 °F /  -2.2 °C 29.96in /  1014.4hPa WSW 13mph /  20.9km/h 16mph /  25.7km/h 77% 0.00in /  0mm 0 W/m2
02:10 34.7 °F /  1.5 °C 28.2 °F /  -2.1 °C 29.96in /  1014.4hPa SW 10mph /  16.1km/h 17mph /  27.4km/h 77% 0.00in /  0mm 0 W/m2
02:20 34.8 °F /  1.6 °C 28.3 °F /  -2.1 °C 29.95in /  1014.1hPa SW 8mph /  12.9km/h 14mph /  22.5km/h 77% 0.00in /  0mm 0 W/m2
02:30 35.1 °F /  1.7 °C 28.6 °F /  -1.9 °C 29.95in /  1014.1hPa SW 7mph /  11.3km/h 16mph /  25.7km/h 77% 0.00in /  0mm 0 W/m2
02:40 35.1 °F /  1.7 °C 28.6 °F /  -1.9 °C 29.95in /  1014.1hPa SW 9mph /  14.5km/h 14mph /  22.5km/h 77% 0.00in /  0mm 0 W/m2
02:50 35.2 °F /  1.8 °C 28.8 °F /  -1.8 °C 29.96in /  1014.4hPa SW 6mph /  9.7km/h 13mph /  20.9km/h 77% 0.00in /  0mm 0 W/m2
03:00 35.4 °F /  1.9 °C 28.9 °F /  -1.7 °C 29.95in /  1014.1hPa SW 7mph /  11.3km/h 14mph /  22.5km/h 77% 0.00in /  0mm 0 W/m2
03:10 35.4 °F /  1.9 °C 28.9 °F /  -1.7 °C 29.96in /  1014.4hPa SW 6mph /  9.7km/h 12mph /  19.3km/h 77% 0.00in /  0mm 0 W/m2
03:20 35.7 °F /  2.1 °C 29.2 °F /  -1.6 °C 29.96in /  1014.4hPa SW 8mph /  12.9km/h 16mph /  25.7km/h 77% 0.00in /  0mm 0 W/m2
03:30 36 °F /  2.2 °C 29.4 °F /  -1.4 °C 29.96in /  1014.4hPa SW 9mph /  14.5km/h 16mph /  25.7km/h 77% 0.00in /  0mm 0 W/m2
03:40 36.1 °F /  2.3 °C 29.6 °F /  -1.3 °C 29.96in /  1014.4hPa SW 10mph /  16.1km/h 16mph /  25.7km/h 77% 0.00in /  0mm 0 W/m2
03:50 36.4 °F /  2.4 °C 29.9 °F /  -1.2 °C 29.95in /  1014.1hPa WSW 9mph /  14.5km/h 19mph /  30.6km/h 77% 0.00in /  0mm 0 W/m2
04:00 36.5 °F /  2.5 °C 30.3 °F /  -0.9 °C 29.96in /  1014.4hPa WSW 6mph /  9.7km/h 14mph /  22.5km/h 78% 0.00in /  0mm 0 W/m2
04:10 36.7 °F /  2.6 °C 30.5 °F /  -0.8 °C 29.95in /  1014.1hPa SW 3mph /  4.8km/h 8mph /  12.9km/h 78% 0.00in /  0mm 0 W/m2
04:20 36.7 °F /  2.6 °C 30.1 °F /  -1.1 °C 29.95in /  1014.1hPa SSW 3mph /  4.8km/h 7mph /  11.3km/h 77% 0.00in /  0mm 0 W/m2
04:30 36.9 °F /  2.7 °C 30.3 °F /  -0.9 °C 29.95in /  1014.1hPa SSE 3mph /  4.8km/h 8mph /  12.9km/h 77% 0.00in /  0mm 0 W/m2
04:40 36.9 °F /  2.7 °C 30.3 °F /  -0.9 °C 29.95in /  1014.1hPa SSW 2mph /  3.2km/h 7mph /  11.3km/h 77% 0.00in /  0mm 0 W/m2
04:50 36.9 °F /  2.7 °C 30.3 °F /  -0.9 °C 29.96in /  1014.4hPa SW 2mph /  3.2km/h 8mph /  12.9km/h 77% 0.00in /  0mm 0 W/m2
05:00 36.9 °F /  2.7 °C 30.6 °F /  -0.8 °C 29.96in /  1014.4hPa WNW 1mph /  1.6km/h 6mph /  9.7km/h 78% 0.00in /  0mm 0 W/m2
05:10 36.9 °F /  2.7 °C 30.6 °F /  -0.8 °C 29.96in /  1014.4hPa SW 1mph /  1.6km/h 4mph /  6.4km/h 78% 0.00in /  0mm 0 W/m2
05:20 36.7 °F /  2.6 °C 30.5 °F /  -0.8 °C 29.96in /  1014.4hPa West 3mph /  4.8km/h 7mph /  11.3km/h 78% 0.00in /  0mm 0 W/m2
05:30 36.7 °F /  2.6 °C 30.5 °F /  -0.8 °C 29.95in /  1014.1hPa WSW 6mph /  9.7km/h 8mph /  12.9km/h 78% 0.00in /  0mm 0 W/m2
05:40 36.9 °F /  2.7 °C 30.6 °F /  -0.8 °C 29.95in /  1014.1hPa SW 8mph /  12.9km/h 13mph /  20.9km/h 78% 0.00in /  0mm 0 W/m2
05:50 37.2 °F /  2.9 °C 30.6 °F /  -0.8 °C 29.95in /  1014.1hPa SW 7mph /  11.3km/h 13mph /  20.9km/h 77% 0.00in /  0mm 0 W/m2
06:00 37.4 °F /  3 °C 30.8 °F /  -0.7 °C 29.96in /  1014.4hPa SW 7mph /  11.3km/h 13mph /  20.9km/h 77% 0.00in /  0mm 0 W/m2
06:10 37.6 °F /  3.1 °C 31 °F /  -0.6 °C 29.96in /  1014.4hPa SW 7mph /  11.3km/h 12mph /  19.3km/h 77% 0.00in /  0mm 0 W/m2
06:20 37.8 °F /  3.2 °C 31.2 °F /  -0.4 °C 29.96in /  1014.4hPa SW 5mph /  8km/h 10mph /  16.1km/h 77% 0.00in /  0mm 0 W/m2
06:30 37.8 °F /  3.2 °C 31.5 °F /  -0.3 °C 29.96in /  1014.4hPa SW 2mph /  3.2km/h 9mph /  14.5km/h 78% 0.00in /  0mm 0 W/m2
06:40 37.8 °F /  3.2 °C 31.5 °F /  -0.3 °C 29.96in /  1014.4hPa SSW 3mph /  4.8km/h 9mph /  14.5km/h 78% 0.00in /  0mm 0 W/m2
Knjazevac, Serbia
Compliments of Weather Underground - 2 mb